createdAt,value
2023-04-07T00:00:37.419Z,5.20
2023-04-07T00:03:07.291Z,5.10
2023-04-07T00:05:34.329Z,5.20
2023-04-07T00:08:01.331Z,5.20
2023-04-07T00:10:28.350Z,5.10
2023-04-07T00:12:55.050Z,5.90
2023-04-07T00:15:21.863Z,5.10
2023-04-07T00:17:49.330Z,5.10
2023-04-07T00:20:17.921Z,5.10
2023-04-07T00:22:44.657Z,5.10
2023-04-07T00:25:11.429Z,5.10
2023-04-07T00:27:38.123Z,5.10
2023-04-07T00:30:05.123Z,5.20
2023-04-07T00:32:31.762Z,5.10
2023-04-07T00:34:58.442Z,5.10
2023-04-07T00:37:28.921Z,5.00
2023-04-07T00:39:56.337Z,5.10
2023-04-07T00:42:23.174Z,5.00
2023-04-07T00:44:49.824Z,5.00
2023-04-07T00:47:16.670Z,5.00
2023-04-07T00:49:43.800Z,5.00
2023-04-07T00:52:13.376Z,5.00
2023-04-07T00:54:42.066Z,5.00
2023-04-07T00:57:09.247Z,5.00
2023-04-07T00:59:36.359Z,5.10
2023-04-07T01:02:07.084Z,5.00
2023-04-07T01:04:34.099Z,5.00
2023-04-07T01:07:11.885Z,5.10
2023-04-07T01:09:43.236Z,5.00
2023-04-07T01:12:25.680Z,5.10
2023-04-07T01:14:55.863Z,5.00
2023-04-07T01:17:25.826Z,5.10
2023-04-07T01:20:02.177Z,5.00
2023-04-07T01:22:33.175Z,5.00
2023-04-07T01:25:11.397Z,5.00
2023-04-07T01:27:57.010Z,5.00
2023-04-07T01:30:24.488Z,5.00
2023-04-07T01:32:53.115Z,5.00
2023-04-07T01:35:20.077Z,5.00
2023-04-07T01:37:49.085Z,5.00
2023-04-07T01:40:16.410Z,5.10
2023-04-07T01:42:43.215Z,5.10
2023-04-07T01:45:10.394Z,5.10
2023-04-07T01:47:53.306Z,5.10
2023-04-07T01:50:21.254Z,5.10
2023-04-07T01:52:47.845Z,5.10
2023-04-07T01:55:14.469Z,5.10
2023-04-07T01:57:41.002Z,5.10
2023-04-07T02:00:07.943Z,5.10
2023-04-07T02:02:36.782Z,5.10
2023-04-07T02:05:05.924Z,5.20
2023-04-07T02:07:53.729Z,5.20
2023-04-07T02:10:22.834Z,5.20
2023-04-07T02:12:49.742Z,5.20
2023-04-07T02:15:16.768Z,5.20
2023-04-07T02:17:46.800Z,5.20
2023-04-07T02:20:13.933Z,5.20
2023-04-07T02:22:41.530Z,5.20
2023-04-07T02:25:21.620Z,5.30
2023-04-07T02:27:48.227Z,5.20
2023-04-07T02:30:15.188Z,5.20
2023-04-07T02:32:41.834Z,5.20
2023-04-07T02:35:08.493Z,5.20
2023-04-07T02:37:35.422Z,5.20
2023-04-07T02:40:02.587Z,5.20
2023-04-07T02:42:29.197Z,5.20
2023-04-07T02:44:55.840Z,5.20
2023-04-07T02:47:22.395Z,5.20
2023-04-07T02:49:49.035Z,5.20
2023-04-07T02:52:16.071Z,5.20
2023-04-07T02:54:43.054Z,5.10
2023-04-07T02:57:09.598Z,5.10
2023-04-07T02:59:36.307Z,5.10
2023-04-07T03:02:03.290Z,5.20
2023-04-07T03:04:30.329Z,5.10
2023-04-07T03:06:57.108Z,5.10
2023-04-07T03:09:24.167Z,5.10
2023-04-07T03:11:51.053Z,5.10
2023-04-07T03:14:17.682Z,5.10
2023-04-07T03:16:44.384Z,5.10
2023-04-07T03:19:11.042Z,5.10
2023-04-07T03:21:38.462Z,5.10
2023-04-07T03:24:05.971Z,5.10
2023-04-07T03:26:33.021Z,5.10
2023-04-07T03:28:59.642Z,5.10
2023-04-07T03:31:26.263Z,5.10
2023-04-07T03:33:53.034Z,5.10
2023-04-07T03:36:19.847Z,5.10
2023-04-07T03:38:49.481Z,5.10
2023-04-07T03:41:16.216Z,5.10
2023-04-07T03:43:42.819Z,5.10
2023-04-07T03:46:09.709Z,5.10
2023-04-07T03:48:36.437Z,5.10
2023-04-07T03:51:03.390Z,5.10
2023-04-07T03:53:29.940Z,5.10
2023-04-07T03:55:56.493Z,5.10
2023-04-07T03:58:23.316Z,5.00
2023-04-07T04:00:50.145Z,5.00
2023-04-07T04:03:16.961Z,5.00
2023-04-07T04:05:43.680Z,5.00
2023-04-07T04:08:10.367Z,5.00
2023-04-07T04:10:37.024Z,5.00
2023-04-07T04:13:06.740Z,4.90
2023-04-07T04:15:33.568Z,4.90
2023-04-07T04:18:00.440Z,4.90
2023-04-07T04:20:27.160Z,4.80
2023-04-07T04:22:53.734Z,4.80
2023-04-07T04:25:20.679Z,4.80
2023-04-07T04:27:47.348Z,4.80
2023-04-07T04:30:14.048Z,4.70
2023-04-07T04:32:40.887Z,4.80
2023-04-07T04:35:07.800Z,4.70
2023-04-07T04:37:34.768Z,4.80
2023-04-07T04:40:01.992Z,4.80
2023-04-07T04:42:28.627Z,4.80
2023-04-07T04:44:55.378Z,4.80
2023-04-07T04:47:22.275Z,4.90
2023-04-07T04:49:48.957Z,4.80
2023-04-07T04:52:15.912Z,4.90
2023-04-07T04:54:42.590Z,4.80
2023-04-07T04:57:09.617Z,4.70
2023-04-07T04:59:36.632Z,4.70
2023-04-07T05:02:03.346Z,4.60
2023-04-07T05:04:30.307Z,4.60
2023-04-07T05:06:57.057Z,4.60
2023-04-07T05:09:23.707Z,4.60
2023-04-07T05:11:50.369Z,4.60
2023-04-07T05:14:17.208Z,4.60
2023-04-07T05:16:44.015Z,4.60
2023-04-07T05:19:10.875Z,4.60
2023-04-07T05:21:37.502Z,4.60
2023-04-07T05:24:04.294Z,4.70
2023-04-07T05:26:31.086Z,4.70
2023-04-07T05:28:57.816Z,4.70
2023-04-07T05:31:24.492Z,4.70
2023-04-07T05:33:51.648Z,4.70
2023-04-07T05:36:19.131Z,4.80
2023-04-07T05:38:45.835Z,4.80
2023-04-07T05:41:12.454Z,4.90
2023-04-07T05:43:39.172Z,4.90
2023-04-07T05:46:05.874Z,4.90
2023-04-07T05:48:32.586Z,4.90
2023-04-07T05:50:59.420Z,5.00
2023-04-07T05:53:26.099Z,5.10
2023-04-07T05:55:52.930Z,5.10
2023-04-07T05:58:19.639Z,5.20
2023-04-07T06:00:46.631Z,5.20
2023-04-07T06:03:13.315Z,5.30
2023-04-07T06:05:43.820Z,5.40
2023-04-07T06:08:11.043Z,5.40
2023-04-07T06:10:37.666Z,5.50
2023-04-07T06:13:04.350Z,5.60
2023-04-07T06:15:31.120Z,5.70
2023-04-07T06:17:57.962Z,5.80
2023-04-07T06:20:24.750Z,5.90
2023-04-07T06:22:51.448Z,6.00
2023-04-07T06:25:18.194Z,6.10
2023-04-07T06:27:44.833Z,6.20
2023-04-07T06:30:11.915Z,6.30
2023-04-07T06:32:38.746Z,6.40
2023-04-07T06:35:05.624Z,6.50
2023-04-07T06:37:32.256Z,6.60
2023-04-07T06:39:58.900Z,6.60
2023-04-07T06:42:25.573Z,6.70
2023-04-07T06:44:52.362Z,6.80
2023-04-07T06:47:19.623Z,6.80
2023-04-07T06:49:46.511Z,6.90
2023-04-07T06:52:13.181Z,6.90
2023-04-07T06:54:40.201Z,7.00
2023-04-07T06:57:11.883Z,7.10
2023-04-07T06:59:38.937Z,7.10
2023-04-07T07:02:07.565Z,10.10
2023-04-07T07:04:35.706Z,7.20
2023-04-07T07:07:03.188Z,7.30
2023-04-07T07:09:29.825Z,7.20
2023-04-07T07:11:56.390Z,7.20
2023-04-07T07:14:23.117Z,7.20
2023-04-07T07:16:49.722Z,7.20
2023-04-07T07:19:16.776Z,7.20
2023-04-07T07:21:43.705Z,7.20
2023-04-07T07:24:10.618Z,7.20
2023-04-07T07:26:37.246Z,7.20
2023-04-07T07:29:03.926Z,7.10
2023-04-07T07:31:31.494Z,7.20
2023-04-07T07:33:58.685Z,7.20
2023-04-07T07:36:26.834Z,7.20
2023-04-07T07:38:53.725Z,8.10
2023-04-07T07:41:21.904Z,7.30
2023-04-07T07:43:49.016Z,7.30
2023-04-07T07:46:16.179Z,7.30
2023-04-07T07:48:42.928Z,7.40
2023-04-07T07:51:09.637Z,7.40
2023-04-07T07:53:36.226Z,7.40
2023-04-07T07:56:02.932Z,7.60
2023-04-07T07:58:29.505Z,7.60
2023-04-07T08:00:56.498Z,7.70
2023-04-07T08:03:23.611Z,7.70
2023-04-07T08:05:50.428Z,7.70
2023-04-07T08:08:17.003Z,7.70
2023-04-07T08:10:43.930Z,7.70
2023-04-07T08:13:11.000Z,8.30
2023-04-07T08:15:38.006Z,7.90
2023-04-07T08:18:06.387Z,8.00
2023-04-07T08:20:33.521Z,8.10
2023-04-07T08:23:01.946Z,9.70
2023-04-07T08:25:29.139Z,8.30
2023-04-07T08:27:55.740Z,8.30
2023-04-07T08:30:22.439Z,8.40
2023-04-07T08:32:49.516Z,9.50
2023-04-07T08:35:16.134Z,8.50
2023-04-07T08:37:44.411Z,8.60
2023-04-07T08:40:11.799Z,8.70
2023-04-07T08:42:41.061Z,8.80
2023-04-07T08:45:09.131Z,8.90
2023-04-07T08:47:36.665Z,8.90
2023-04-07T08:50:04.946Z,9.00
2023-04-07T08:52:38.531Z,9.10
2023-04-07T08:55:07.047Z,9.20
2023-04-07T08:57:33.776Z,9.30
2023-04-07T09:00:05.924Z,9.50
2023-04-07T09:02:33.324Z,9.70
2023-04-07T09:05:01.326Z,9.90
2023-04-07T09:07:28.016Z,10.00
2023-04-07T09:09:55.308Z,10.20
2023-04-07T09:12:22.096Z,10.20
2023-04-07T09:14:48.723Z,10.10
2023-04-07T09:17:15.482Z,10.10
2023-04-07T09:19:42.080Z,10.30
2023-04-07T09:22:12.403Z,13.80
2023-04-07T09:24:39.065Z,13.60
2023-04-07T09:27:10.452Z,13.60
2023-04-07T09:29:37.783Z,10.70
2023-04-07T09:32:04.635Z,11.00
2023-04-07T09:34:41.310Z,11.10
2023-04-07T09:37:09.537Z,11.10
2023-04-07T09:39:49.120Z,11.20
2023-04-07T09:42:16.020Z,14.70
2023-04-07T09:44:44.076Z,14.10
2023-04-07T09:47:11.298Z,13.60
2023-04-07T09:49:54.203Z,14.30
2023-04-07T09:52:26.565Z,11.20
2023-04-07T09:54:53.960Z,10.90
2023-04-07T09:57:21.250Z,10.40
2023-04-07T09:59:49.072Z,13.00
2023-04-07T10:02:15.795Z,11.30
2023-04-07T10:04:44.057Z,9.00
2023-04-07T10:07:10.745Z,8.60
2023-04-07T10:09:37.386Z,8.40
2023-04-07T10:12:05.401Z,9.60
2023-04-07T10:14:32.269Z,7.90
2023-04-07T10:17:00.378Z,7.80
2023-04-07T10:19:29.836Z,7.80
2023-04-07T10:21:57.838Z,7.80
2023-04-07T10:24:38.057Z,10.90
2023-04-07T10:27:08.211Z,7.80
2023-04-07T10:29:37.246Z,7.90
2023-04-07T10:32:03.914Z,8.10
2023-04-07T10:34:52.349Z,8.10
2023-04-07T10:37:21.622Z,8.20
2023-04-07T10:39:49.317Z,8.20
2023-04-07T10:42:34.943Z,9.60
2023-04-07T10:45:02.334Z,8.30
2023-04-07T10:47:29.399Z,10.30
2023-04-07T10:50:19.522Z,8.30
2023-04-07T10:53:07.254Z,8.20
2023-04-07T10:55:35.082Z,8.10
2023-04-07T10:58:21.501Z,8.10
2023-04-07T11:00:57.582Z,8.00
2023-04-07T11:03:25.118Z,8.00
2023-04-07T11:05:51.812Z,8.20
2023-04-07T11:08:33.988Z,8.20
2023-04-07T11:11:00.989Z,8.30
2023-04-07T11:13:27.608Z,8.50
2023-04-07T11:15:54.732Z,11.00
2023-04-07T11:18:23.563Z,10.00
2023-04-07T11:20:50.372Z,8.50
2023-04-07T11:23:18.601Z,8.60
2023-04-07T11:25:46.966Z,11.60
2023-04-07T11:28:14.320Z,8.80
2023-04-07T11:30:50.027Z,10.30
2023-04-07T11:33:17.898Z,9.00
2023-04-07T11:36:03.052Z,10.80
2023-04-07T11:38:35.092Z,9.30
2023-04-07T11:41:10.538Z,9.50
2023-04-07T11:43:37.897Z,9.50
2023-04-07T11:46:15.080Z,12.50
2023-04-07T11:48:42.618Z,9.60
2023-04-07T11:51:19.467Z,9.70
2023-04-07T11:53:47.470Z,9.70
2023-04-07T11:56:19.063Z,12.40
2023-04-07T11:58:52.820Z,12.50
2023-04-07T12:01:19.815Z,9.90
2023-04-07T12:04:00.287Z,13.40
2023-04-07T12:06:38.728Z,10.00
2023-04-07T12:09:05.973Z,10.10
2023-04-07T12:11:33.124Z,10.10
2023-04-07T12:13:59.843Z,13.50
2023-04-07T12:16:26.577Z,10.20
2023-04-07T12:18:53.306Z,13.40
2023-04-07T12:21:20.378Z,10.20
2023-04-07T12:23:48.031Z,13.70
2023-04-07T12:26:14.905Z,11.70
2023-04-07T12:28:41.666Z,13.40
2023-04-07T12:31:08.333Z,10.50
2023-04-07T12:33:34.974Z,13.20
2023-04-07T12:36:02.052Z,14.10
2023-04-07T12:38:28.853Z,10.20
2023-04-07T12:40:55.572Z,10.20
2023-04-07T12:43:22.177Z,10.20
2023-04-07T12:45:48.793Z,10.10
2023-04-07T12:48:16.774Z,10.20
2023-04-07T12:50:43.583Z,12.50
2023-04-07T12:53:10.317Z,12.30
2023-04-07T12:55:37.555Z,9.80
2023-04-07T12:58:04.794Z,9.70
2023-04-07T13:00:31.684Z,9.70
2023-04-07T13:02:58.663Z,12.20
2023-04-07T13:05:25.574Z,12.10
2023-04-07T13:07:52.218Z,13.00
2023-04-07T13:10:18.854Z,9.60
2023-04-07T13:12:45.700Z,9.50
2023-04-07T13:15:12.502Z,9.60
2023-04-07T13:17:39.204Z,9.50
2023-04-07T13:20:06.790Z,9.40
2023-04-07T13:22:35.713Z,9.20
2023-04-07T13:25:02.671Z,12.10
2023-04-07T13:27:29.360Z,8.90
2023-04-07T13:29:56.165Z,8.70
2023-04-07T13:32:23.845Z,8.60
2023-04-07T13:34:50.815Z,8.60
2023-04-07T13:37:19.505Z,8.50
2023-04-07T13:39:46.489Z,12.00
2023-04-07T13:42:16.725Z,10.80
2023-04-07T13:44:47.527Z,8.50
2023-04-07T13:47:19.666Z,10.30
2023-04-07T13:49:47.110Z,8.30
2023-04-07T13:52:14.106Z,8.20
2023-04-07T13:54:40.978Z,11.90
2023-04-07T13:57:08.368Z,10.80
2023-04-07T13:59:35.308Z,8.00
2023-04-07T14:02:02.141Z,10.10
2023-04-07T14:04:29.130Z,8.00
2023-04-07T14:06:56.086Z,8.00
2023-04-07T14:09:22.691Z,7.90
2023-04-07T14:11:49.358Z,7.90
2023-04-07T14:14:16.050Z,10.70
2023-04-07T14:16:42.836Z,7.90
2023-04-07T14:19:09.465Z,8.00
2023-04-07T14:21:36.111Z,8.00
2023-04-07T14:24:02.733Z,11.80
2023-04-07T14:26:29.440Z,10.70
2023-04-07T14:28:56.087Z,7.90
2023-04-07T14:31:22.704Z,8.00
2023-04-07T14:33:49.645Z,8.00
2023-04-07T14:36:19.693Z,8.00
2023-04-07T14:38:46.405Z,8.00
2023-04-07T14:41:13.202Z,7.90
2023-04-07T14:43:39.842Z,7.90
2023-04-07T14:46:07.046Z,8.00
2023-04-07T14:48:33.996Z,8.00
2023-04-07T14:51:09.337Z,8.10
2023-04-07T14:53:36.813Z,8.10
2023-04-07T14:56:06.809Z,8.20
2023-04-07T14:58:33.401Z,8.20
2023-04-07T15:00:59.968Z,8.30
2023-04-07T15:03:26.744Z,8.30
2023-04-07T15:05:53.609Z,8.40
2023-04-07T15:08:20.436Z,8.50
2023-04-07T15:10:47.150Z,8.60
2023-04-07T15:13:13.775Z,8.70
2023-04-07T15:15:40.468Z,8.80
2023-04-07T15:18:07.312Z,8.90
2023-04-07T15:20:33.966Z,9.00
2023-04-07T15:23:01.688Z,9.10
2023-04-07T15:25:28.758Z,9.20
2023-04-07T15:27:55.556Z,9.30
2023-04-07T15:30:22.353Z,9.30
2023-04-07T15:33:00.339Z,9.20
2023-04-07T15:35:27.669Z,9.10
2023-04-07T15:37:54.407Z,9.10
2023-04-07T15:40:21.176Z,8.90
2023-04-07T15:42:47.971Z,8.80
2023-04-07T15:45:14.584Z,12.20
2023-04-07T15:47:41.200Z,8.60
2023-04-07T15:50:08.458Z,8.50
2023-04-07T15:52:35.154Z,8.40
2023-04-07T15:55:01.817Z,8.40
2023-04-07T15:57:28.610Z,11.80
2023-04-07T15:59:55.217Z,11.40
2023-04-07T16:02:22.153Z,8.20
2023-04-07T16:04:49.340Z,8.20
2023-04-07T16:07:16.376Z,8.20
2023-04-07T16:09:42.973Z,8.20
2023-04-07T16:12:09.747Z,8.20
2023-04-07T16:14:36.465Z,8.20
2023-04-07T16:17:03.379Z,10.70
2023-04-07T16:19:30.365Z,8.10
2023-04-07T16:21:57.017Z,8.20
2023-04-07T16:24:23.926Z,8.20
2023-04-07T16:26:51.484Z,8.30
2023-04-07T16:29:19.111Z,8.20
2023-04-07T16:31:46.047Z,8.30
2023-04-07T16:34:12.783Z,8.30
2023-04-07T16:36:39.353Z,8.40
2023-04-07T16:39:06.200Z,8.40
2023-04-07T16:41:32.937Z,9.10
2023-04-07T16:43:59.581Z,8.50
2023-04-07T16:46:29.963Z,8.50
2023-04-07T16:48:56.676Z,8.50
2023-04-07T16:51:24.809Z,8.50
2023-04-07T16:53:51.578Z,8.50
2023-04-07T16:56:19.055Z,8.50
2023-04-07T16:58:45.895Z,10.70
2023-04-07T17:01:12.601Z,8.50
2023-04-07T17:03:40.318Z,8.40
2023-04-07T17:06:07.373Z,8.40
2023-04-07T17:08:38.025Z,8.40
2023-04-07T17:11:08.468Z,8.40
2023-04-07T17:13:35.931Z,8.30
2023-04-07T17:16:03.552Z,8.30
2023-04-07T17:18:30.823Z,8.30
2023-04-07T17:20:57.400Z,8.30
2023-04-07T17:23:24.048Z,8.30
2023-04-07T17:25:50.901Z,8.30
2023-04-07T17:28:17.695Z,8.30
2023-04-07T17:30:44.566Z,8.30
2023-04-07T17:33:11.830Z,8.30
2023-04-07T17:35:38.653Z,8.30
2023-04-07T17:38:06.723Z,8.30
2023-04-07T17:40:33.305Z,8.30
2023-04-07T17:43:00.512Z,8.30
2023-04-07T17:45:27.326Z,8.20
2023-04-07T17:47:54.913Z,8.20
2023-04-07T17:50:21.628Z,8.20
2023-04-07T17:52:48.240Z,11.30
2023-04-07T17:55:14.882Z,8.00
2023-04-07T17:57:41.902Z,8.10
2023-04-07T18:00:09.045Z,8.10
2023-04-07T18:02:36.030Z,7.90
2023-04-07T18:05:05.805Z,8.00
2023-04-07T18:07:32.504Z,9.70
2023-04-07T18:09:59.113Z,7.90
2023-04-07T18:12:25.741Z,7.90
2023-04-07T18:14:52.340Z,7.90
2023-04-07T18:17:19.094Z,7.90
2023-04-07T18:19:45.842Z,7.80
2023-04-07T18:22:12.534Z,7.80
2023-04-07T18:24:39.120Z,7.80
2023-04-07T18:27:05.750Z,7.80
2023-04-07T18:29:32.449Z,7.70
2023-04-07T18:31:59.036Z,7.70
2023-04-07T18:34:26.204Z,7.50
2023-04-07T18:36:53.848Z,11.50
2023-04-07T18:39:20.834Z,7.70
2023-04-07T18:41:48.343Z,7.70
2023-04-07T18:44:15.047Z,10.00
2023-04-07T18:46:41.913Z,7.50
2023-04-07T18:49:08.701Z,7.50
2023-04-07T18:51:35.313Z,7.50
2023-04-07T18:54:02.026Z,7.50
2023-04-07T18:56:29.901Z,7.50
2023-04-07T18:58:56.619Z,7.40
2023-04-07T19:01:23.331Z,7.40
2023-04-07T19:03:50.332Z,7.30
2023-04-07T19:06:17.274Z,10.50
2023-04-07T19:08:44.252Z,10.10
2023-04-07T19:11:10.967Z,7.20
2023-04-07T19:13:37.704Z,7.20
2023-04-07T19:16:05.139Z,7.20
2023-04-07T19:18:32.349Z,7.10
2023-04-07T19:20:58.973Z,7.20
2023-04-07T19:23:25.728Z,7.10
2023-04-07T19:25:52.603Z,7.10
2023-04-07T19:28:19.292Z,7.10
2023-04-07T19:30:46.302Z,7.10
2023-04-07T19:33:13.252Z,9.20
2023-04-07T19:35:39.977Z,7.10
2023-04-07T19:38:07.181Z,7.20
2023-04-07T19:40:33.901Z,7.20
2023-04-07T19:43:00.654Z,7.20
2023-04-07T19:45:27.671Z,7.10
2023-04-07T19:47:54.748Z,7.20
2023-04-07T19:50:21.753Z,7.20
2023-04-07T19:52:50.285Z,8.70
2023-04-07T19:55:16.903Z,7.20
2023-04-07T19:57:43.534Z,7.10
2023-04-07T20:00:10.507Z,7.10
2023-04-07T20:02:37.440Z,7.10
2023-04-07T20:05:04.288Z,7.00
2023-04-07T20:07:32.070Z,7.00
2023-04-07T20:09:58.854Z,7.00
2023-04-07T20:12:25.604Z,7.00
2023-04-07T20:14:52.274Z,7.00
2023-04-07T20:17:19.391Z,9.70
2023-04-07T20:19:46.948Z,7.00
2023-04-07T20:22:13.612Z,6.90
2023-04-07T20:24:40.313Z,6.90
2023-04-07T20:27:06.881Z,6.90
2023-04-07T20:29:33.455Z,6.80
2023-04-07T20:32:00.106Z,6.90
2023-04-07T20:34:26.943Z,6.90
2023-04-07T20:36:53.694Z,6.90
2023-04-07T20:39:20.414Z,6.90
2023-04-07T20:41:47.734Z,7.00
2023-04-07T20:44:14.388Z,6.90
2023-04-07T20:46:42.325Z,6.90
2023-04-07T20:49:09.007Z,6.90
2023-04-07T20:51:38.531Z,6.90
2023-04-07T20:54:05.294Z,6.90
2023-04-07T20:56:32.124Z,5.90
2023-04-07T20:58:58.771Z,6.80
2023-04-07T21:01:25.514Z,8.00
2023-04-07T21:03:53.142Z,8.80
2023-04-07T21:06:19.898Z,6.80
2023-04-07T21:08:46.694Z,6.80
2023-04-07T21:11:13.577Z,6.80
2023-04-07T21:13:40.612Z,6.80
2023-04-07T21:16:07.225Z,6.90
2023-04-07T21:18:33.884Z,6.80
2023-04-07T21:21:02.199Z,6.80
2023-04-07T21:23:31.202Z,6.80
2023-04-07T21:26:02.297Z,6.80
2023-04-07T21:28:28.916Z,6.80
2023-04-07T21:30:57.089Z,6.80
2023-04-07T21:33:23.993Z,6.80
2023-04-07T21:35:51.328Z,6.80
2023-04-07T21:38:18.401Z,6.80
2023-04-07T21:40:45.176Z,6.80
2023-04-07T21:43:12.366Z,6.80
2023-04-07T21:45:39.061Z,6.80
2023-04-07T21:48:06.715Z,7.80
2023-04-07T21:50:33.860Z,6.70
2023-04-07T21:53:00.628Z,6.70
2023-04-07T21:55:27.547Z,6.70
2023-04-07T21:57:54.414Z,6.80
2023-04-07T22:00:22.180Z,6.70
2023-04-07T22:02:49.617Z,6.70
2023-04-07T22:05:17.138Z,6.70
2023-04-07T22:07:45.554Z,6.70
2023-04-07T22:10:12.704Z,6.70
2023-04-07T22:12:39.424Z,6.70
2023-04-07T22:15:06.374Z,6.70
2023-04-07T22:17:33.369Z,6.70
2023-04-07T22:20:00.064Z,6.70
2023-04-07T22:22:26.795Z,6.70
2023-04-07T22:24:53.342Z,6.70
2023-04-07T22:27:19.978Z,6.80
2023-04-07T22:29:46.817Z,6.80
2023-04-07T22:32:13.569Z,6.80
2023-04-07T22:34:40.274Z,6.80
2023-04-07T22:37:06.941Z,6.80
2023-04-07T22:39:33.590Z,6.80
2023-04-07T22:42:00.959Z,6.80
2023-04-07T22:44:27.715Z,6.80
2023-04-07T22:46:54.499Z,6.80
2023-04-07T22:49:21.414Z,6.80
2023-04-07T22:51:49.017Z,6.80
2023-04-07T22:54:15.934Z,6.80
2023-04-07T22:56:42.738Z,6.80
2023-04-07T22:59:09.487Z,6.80
2023-04-07T23:01:36.614Z,6.80
2023-04-07T23:04:03.655Z,6.70
2023-04-07T23:06:31.460Z,6.70
2023-04-07T23:08:58.102Z,6.80
2023-04-07T23:11:24.674Z,6.80
2023-04-07T23:13:51.826Z,6.80
2023-04-07T23:16:18.514Z,6.80
2023-04-07T23:18:45.222Z,6.80
2023-04-07T23:21:13.587Z,6.80
2023-04-07T23:23:40.546Z,6.80
2023-04-07T23:26:07.332Z,6.80
2023-04-07T23:28:33.966Z,6.80
2023-04-07T23:31:02.129Z,6.80
2023-04-07T23:33:29.743Z,6.80
2023-04-07T23:35:56.635Z,6.80
2023-04-07T23:38:23.460Z,6.80
2023-04-07T23:40:50.390Z,6.80
2023-04-07T23:43:17.122Z,7.60
2023-04-07T23:45:43.987Z,6.80
2023-04-07T23:48:10.802Z,6.80
2023-04-07T23:50:37.641Z,6.80
2023-04-07T23:53:04.261Z,6.80
2023-04-07T23:55:31.283Z,6.80
2023-04-07T23:57:57.925Z,6.80
